createdAt,value
2023-05-18T16:01:52.229Z,173.50
2023-05-18T16:03:24.379Z,145.75
2023-05-18T16:04:56.517Z,148.50
2023-05-18T16:06:28.826Z,132.75
2023-05-18T16:08:00.971Z,130.75
2023-05-18T16:09:32.935Z,143.75
2023-05-18T16:11:07.154Z,140.25
2023-05-18T16:12:39.353Z,131.25
2023-05-18T16:14:11.672Z,128.25
2023-05-18T16:15:43.668Z,128.50
2023-05-18T16:17:15.998Z,134.75
2023-05-18T16:18:48.413Z,135.50
2023-05-18T16:20:21.247Z,133.50
2023-05-18T16:21:53.210Z,125.00
2023-05-18T16:23:25.229Z,129.00
2023-05-18T16:24:59.138Z,124.50
2023-05-18T16:26:32.556Z,137.25
2023-05-18T16:28:04.669Z,135.75
2023-05-18T16:29:36.623Z,127.25
2023-05-18T16:31:11.076Z,133.50
2023-05-18T16:32:44.599Z,137.25
2023-05-18T16:34:16.585Z,137.25
2023-05-18T16:35:48.560Z,140.25
2023-05-18T16:37:20.496Z,155.25
2023-05-18T16:38:53.183Z,153.75
2023-05-18T16:40:25.107Z,136.25
2023-05-18T16:41:57.073Z,138.75
2023-05-18T16:43:28.969Z,148.75
2023-05-18T16:45:01.046Z,146.00
2023-05-18T16:46:32.974Z,145.00
2023-05-18T16:48:05.208Z,141.25
2023-05-18T16:49:37.262Z,155.00
2023-05-18T16:51:09.869Z,145.75
2023-05-18T16:52:41.882Z,157.25
2023-05-18T16:54:13.889Z,147.25
2023-05-18T16:55:46.295Z,142.50
2023-05-18T16:57:18.223Z,144.50
2023-05-18T16:58:52.624Z,135.50
2023-05-18T17:00:24.821Z,131.00
2023-05-18T17:01:56.820Z,142.25
2023-05-18T17:03:29.560Z,144.50
2023-05-18T17:05:01.453Z,150.00
2023-05-18T17:06:33.547Z,149.75
2023-05-18T17:08:05.456Z,151.50
2023-05-18T17:09:40.216Z,147.00
2023-05-18T17:11:12.468Z,145.50
2023-05-18T17:12:44.448Z,137.50
2023-05-18T17:14:16.380Z,143.75
2023-05-18T17:15:48.380Z,146.25
2023-05-18T17:17:20.492Z,147.00
2023-05-18T17:18:54.815Z,144.75
2023-05-18T17:20:26.858Z,143.25
2023-05-18T17:21:58.890Z,191.50
2023-05-18T17:23:31.088Z,152.00
2023-05-18T17:25:03.341Z,148.00
2023-05-18T17:26:35.279Z,148.50
2023-05-18T17:28:07.329Z,144.75
2023-05-18T17:29:39.250Z,136.00
2023-05-18T17:31:11.369Z,127.50
2023-05-18T17:32:45.674Z,139.25
2023-05-18T17:34:17.795Z,138.50
2023-05-18T17:35:49.936Z,128.75
2023-05-18T17:37:22.112Z,124.75
2023-05-18T17:38:54.588Z,133.75
2023-05-18T17:40:26.716Z,123.50
2023-05-18T17:42:00.290Z,126.50
2023-05-18T17:43:32.300Z,122.50
2023-05-18T17:45:04.640Z,112.25
2023-05-18T17:46:36.654Z,111.00
2023-05-18T17:48:09.014Z,113.20
2023-05-18T17:49:41.146Z,117.75
2023-05-18T17:51:13.218Z,98.20
2023-05-18T17:52:45.299Z,95.80
2023-05-18T17:54:17.400Z,107.00
2023-05-18T17:55:49.555Z,113.80
2023-05-18T17:57:23.103Z,114.60
2023-05-18T17:58:55.091Z,117.75
2023-05-18T18:00:27.237Z,112.60
2023-05-18T18:01:59.380Z,115.20
2023-05-18T18:03:32.726Z,114.00
2023-05-18T18:05:04.832Z,99.60
2023-05-18T18:06:36.899Z,104.00
2023-05-18T18:08:08.988Z,102.20
2023-05-18T18:09:41.109Z,103.60
2023-05-18T18:11:13.079Z,98.20
2023-05-18T18:12:45.311Z,96.80
2023-05-18T18:14:17.588Z,87.20
2023-05-18T18:15:49.706Z,97.50
2023-05-18T18:17:23.316Z,124.75
2023-05-18T18:18:56.009Z,107.00
2023-05-18T18:20:27.933Z,100.40
2023-05-18T18:21:59.897Z,100.75
2023-05-18T18:23:31.939Z,110.60
2023-05-18T18:25:04.035Z,115.50
2023-05-18T18:26:40.657Z,104.80
2023-05-18T18:28:15.430Z,105.00
2023-05-18T18:29:47.449Z,113.00
2023-05-18T18:31:21.015Z,115.40
2023-05-18T18:32:53.092Z,111.40
2023-05-18T18:34:25.024Z,107.00
2023-05-18T18:35:57.354Z,110.00
2023-05-18T18:37:29.476Z,106.60
2023-05-18T18:39:01.664Z,110.60
2023-05-18T18:40:36.761Z,104.80
2023-05-18T18:42:08.669Z,100.20
2023-05-18T18:43:40.695Z,97.80
2023-05-18T18:45:12.581Z,102.40
2023-05-18T18:46:45.216Z,103.80
2023-05-18T18:48:21.194Z,112.60
2023-05-18T18:49:53.143Z,123.00
2023-05-18T18:51:25.069Z,122.00
2023-05-18T18:52:56.975Z,125.00
2023-05-18T18:54:29.012Z,115.25
2023-05-18T18:56:01.138Z,114.00
2023-05-18T18:57:33.919Z,119.00
2023-05-18T18:59:05.950Z,123.25
2023-05-18T19:00:38.110Z,107.00
2023-05-18T19:02:10.096Z,104.60
2023-05-18T19:03:42.019Z,109.40
2023-05-18T19:05:14.063Z,108.00
2023-05-18T19:06:46.453Z,104.20
2023-05-18T19:08:18.375Z,109.20
2023-05-18T19:09:50.615Z,104.20
2023-05-18T19:11:23.646Z,102.00
2023-05-18T19:12:57.119Z,103.00
2023-05-18T19:14:28.962Z,95.20
2023-05-18T19:16:01.034Z,96.25
2023-05-18T19:17:33.071Z,99.20
2023-05-18T19:19:09.038Z,96.25
2023-05-18T19:20:41.025Z,93.75
2023-05-18T19:22:13.004Z,92.50
2023-05-18T19:23:44.844Z,105.60
2023-05-18T19:25:16.737Z,93.20
2023-05-18T19:26:48.658Z,86.50
2023-05-18T19:28:20.857Z,251.00
2023-05-18T19:29:52.834Z,223.00
2023-05-18T19:31:25.548Z,201.00
2023-05-18T19:32:57.605Z,182.00
2023-05-18T19:34:29.561Z,148.50
2023-05-18T19:36:02.551Z,140.25
2023-05-18T19:37:34.433Z,129.00
2023-05-18T19:39:06.682Z,121.00
2023-05-18T19:40:38.630Z,121.50
2023-05-18T19:42:10.532Z,132.25
2023-05-18T19:43:42.508Z,113.25
2023-05-18T19:45:14.429Z,119.25
2023-05-18T19:46:46.502Z,116.00
2023-05-18T19:48:18.490Z,113.60
2023-05-18T19:49:50.536Z,125.00
2023-05-18T19:51:22.640Z,116.00
2023-05-18T19:52:54.578Z,111.80
2023-05-18T19:54:26.509Z,108.80
2023-05-18T19:55:59.483Z,106.40
2023-05-18T19:57:31.446Z,103.00
2023-05-18T19:59:03.387Z,99.20
2023-05-18T20:00:35.388Z,99.50
2023-05-18T20:02:07.401Z,161.75
2023-05-18T20:03:43.022Z,101.50
2023-05-18T20:05:19.072Z,124.75
2023-05-18T20:06:52.065Z,120.00
2023-05-18T20:08:23.988Z,120.75
2023-05-18T20:09:56.056Z,117.75
2023-05-18T20:11:28.001Z,112.75
2023-05-18T20:13:00.254Z,110.25
2023-05-18T20:14:33.554Z,104.60
2023-05-18T20:16:06.668Z,106.60
2023-05-18T20:17:38.656Z,108.20
2023-05-18T20:19:12.104Z,97.80
2023-05-18T20:20:44.060Z,89.60
2023-05-18T20:22:17.152Z,88.00
2023-05-18T20:23:49.119Z,104.25
2023-05-18T20:25:21.071Z,97.80
2023-05-18T20:26:53.293Z,92.50
2023-05-18T20:28:27.128Z,101.60
2023-05-18T20:29:59.087Z,104.60
2023-05-18T20:31:31.039Z,97.20
2023-05-18T20:33:05.894Z,101.80
2023-05-18T20:34:37.855Z,105.20
2023-05-18T20:36:09.748Z,105.60
2023-05-18T20:37:41.717Z,106.20
2023-05-18T20:39:14.773Z,110.60
2023-05-18T20:40:51.173Z,91.80
2023-05-18T20:42:23.624Z,105.40
2023-05-18T20:43:56.028Z,106.60
2023-05-18T20:45:29.997Z,109.60
2023-05-18T20:47:02.780Z,112.40
2023-05-18T20:48:36.089Z,117.60
2023-05-18T20:50:09.292Z,108.00
2023-05-18T20:51:41.250Z,105.20
2023-05-18T20:53:13.113Z,99.00
2023-05-18T20:54:46.212Z,104.80
2023-05-18T20:56:19.088Z,120.50
2023-05-18T20:57:51.053Z,107.80
2023-05-18T20:59:22.900Z,100.00
2023-05-18T21:00:55.746Z,96.00
2023-05-18T21:02:27.676Z,96.00
2023-05-18T21:03:59.718Z,97.40
2023-05-18T21:05:32.242Z,106.00
2023-05-18T21:07:05.766Z,110.20
2023-05-18T21:08:37.646Z,91.00
2023-05-18T21:10:10.704Z,99.40
2023-05-18T21:11:42.740Z,100.20
2023-05-18T21:13:15.229Z,103.60
2023-05-18T21:14:47.102Z,97.50
2023-05-18T21:16:19.074Z,96.40
2023-05-18T21:17:51.124Z,97.80
2023-05-18T21:19:23.276Z,101.00
2023-05-18T21:20:57.454Z,107.60
2023-05-18T21:22:29.445Z,125.25
2023-05-18T21:24:01.452Z,116.50
2023-05-18T21:25:33.359Z,125.75
2023-05-18T21:27:05.583Z,124.50
2023-05-18T21:28:37.471Z,128.25
2023-05-18T21:30:10.042Z,122.25
2023-05-18T21:31:42.141Z,122.25
2023-05-18T21:33:14.239Z,118.00
2023-05-18T21:34:46.264Z,119.25
2023-05-18T21:36:20.901Z,118.50
2023-05-18T21:37:52.819Z,111.40
2023-05-18T21:39:24.689Z,114.00
2023-05-18T21:40:56.918Z,107.60
2023-05-18T21:42:28.818Z,109.80
2023-05-18T21:44:00.973Z,106.80
2023-05-18T21:45:32.881Z,104.20
2023-05-18T21:47:04.935Z,103.40
2023-05-18T21:48:36.924Z,98.60
2023-05-18T21:50:09.194Z,99.00
2023-05-18T21:51:41.293Z,96.25
2023-05-18T21:53:13.251Z,96.25
2023-05-18T21:54:45.167Z,95.50
2023-05-18T21:56:17.331Z,86.00
2023-05-18T21:57:49.198Z,87.75
2023-05-18T21:59:21.235Z,95.00
2023-05-18T22:00:53.174Z,86.50
2023-05-18T22:02:25.125Z,75.50
2023-05-18T22:03:57.064Z,88.00
2023-05-18T22:05:29.134Z,85.25
2023-05-18T22:07:01.067Z,80.25
2023-05-18T22:08:32.920Z,73.50
2023-05-18T22:10:05.267Z,70.25
2023-05-18T22:11:37.193Z,70.25
2023-05-18T22:13:09.506Z,68.75
2023-05-18T22:14:41.488Z,68.75
2023-05-18T22:16:13.510Z,72.00
2023-05-18T22:17:46.293Z,68.75
2023-05-18T22:19:18.309Z,62.25
2023-05-18T22:20:50.292Z,64.00
2023-05-18T22:22:30.164Z,60.75
2023-05-18T22:24:02.693Z,55.50
2023-05-18T22:25:34.557Z,58.00
2023-05-18T22:27:06.545Z,58.50
2023-05-18T22:28:38.430Z,54.25
2023-05-18T22:30:10.978Z,55.00
2023-05-18T22:31:42.928Z,51.75
2023-05-18T22:33:14.973Z,53.00
2023-05-18T22:34:46.892Z,51.40
